createdAt,value
2022-12-08T00:02:45.816Z,57.99
2022-12-08T00:06:13.289Z,57.78
2022-12-08T00:16:17.420Z,56.27
2022-12-08T00:19:25.271Z,57.27
2022-12-08T00:22:41.729Z,58.78
2022-12-08T00:25:50.532Z,58.72
2022-12-08T00:29:17.214Z,60.43
2022-12-08T00:32:29.449Z,59.36
2022-12-08T00:35:42.799Z,59.09
2022-12-08T00:38:49.800Z,59.17
2022-12-08T00:42:02.954Z,59.93
2022-12-08T00:45:19.296Z,60.31
2022-12-08T00:48:25.930Z,59.67
2022-12-08T00:51:34.520Z,59.11
2022-12-08T00:54:40.699Z,58.42
2022-12-08T00:57:46.241Z,58.68
2022-12-08T01:00:53.183Z,58.76
2022-12-08T01:04:08.598Z,58.90
2022-12-08T01:10:47.026Z,60.16
2022-12-08T01:14:33.339Z,59.96
2022-12-08T01:24:25.909Z,61.20
2022-12-08T01:27:37.091Z,60.94
2022-12-08T01:30:57.977Z,61.29
2022-12-08T01:34:15.461Z,60.32
2022-12-08T01:37:26.897Z,60.43
2022-12-08T01:44:16.506Z,60.14
2022-12-08T01:51:55.603Z,61.03
2022-12-08T01:54:23.590Z,60.80
2022-12-08T02:00:53.267Z,58.41
2022-12-08T02:28:13.883Z,57.47
2022-12-08T02:31:44.461Z,57.53
2022-12-08T02:38:17.534Z,56.70
2022-12-08T02:41:30.255Z,56.55
2022-12-08T02:44:52.233Z,57.51
2022-12-08T02:47:57.887Z,56.85
2022-12-08T02:54:37.012Z,57.74
2022-12-08T03:01:30.966Z,57.30
2022-12-08T03:04:46.227Z,57.92
2022-12-08T03:07:57.811Z,58.14
2022-12-08T03:11:14.435Z,58.58
2022-12-08T03:14:19.969Z,58.54
2022-12-08T03:17:29.520Z,58.52
2022-12-08T03:20:36.903Z,58.70
2022-12-08T03:24:12.528Z,57.75
2022-12-08T03:27:19.711Z,57.88
2022-12-08T03:30:53.682Z,57.40
2022-12-08T03:34:08.499Z,57.76
2022-12-08T03:37:16.656Z,57.17
2022-12-08T03:40:25.518Z,56.65
2022-12-08T03:43:40.406Z,56.52
2022-12-08T03:50:15.273Z,55.69
2022-12-08T03:53:26.770Z,56.34
2022-12-08T03:56:33.706Z,56.23
2022-12-08T04:03:16.902Z,56.45
2022-12-08T04:10:00.171Z,56.47
2022-12-08T04:13:19.200Z,56.94
2022-12-08T04:20:03.636Z,57.09
2022-12-08T04:23:12.548Z,57.97
2022-12-08T04:26:23.902Z,57.71
2022-12-08T04:29:31.629Z,56.28
2022-12-08T04:32:45.856Z,59.45
2022-12-08T04:35:54.736Z,57.40
2022-12-08T04:39:13.384Z,56.20
2022-12-08T04:49:34.684Z,55.46
2022-12-08T04:52:46.911Z,55.26
2022-12-08T04:59:16.543Z,54.91
2022-12-08T05:02:52.232Z,54.57
2022-12-08T05:05:57.577Z,54.48
2022-12-08T05:09:04.903Z,54.82
2022-12-08T05:16:20.150Z,54.70
2022-12-08T05:19:04.593Z,55.31
2022-12-08T05:22:22.837Z,54.43
2022-12-08T05:25:30.368Z,53.83
2022-12-08T05:28:43.325Z,55.32
2022-12-08T05:31:48.379Z,55.71
2022-12-08T05:35:03.211Z,55.92
2022-12-08T05:38:13.716Z,54.98
2022-12-08T05:41:21.679Z,56.06
2022-12-08T05:47:56.084Z,55.57
2022-12-08T05:54:48.249Z,56.29
2022-12-08T05:57:56.497Z,57.42
2022-12-08T06:01:18.584Z,57.59
2022-12-08T06:04:23.586Z,58.39
2022-12-08T06:07:37.002Z,59.95
2022-12-08T06:10:54.696Z,59.77
2022-12-08T06:14:06.392Z,59.49
2022-12-08T06:20:56.001Z,57.84
2022-12-08T06:24:00.346Z,58.79
2022-12-08T06:27:06.831Z,58.32
2022-12-08T06:30:29.773Z,56.93
2022-12-08T06:40:53.217Z,58.55
2022-12-08T06:44:14.336Z,57.61
2022-12-08T06:47:22.125Z,58.04
2022-12-08T06:50:29.943Z,56.47
2022-12-08T06:53:49.037Z,56.17
2022-12-08T07:00:20.444Z,54.61
2022-12-08T07:10:27.853Z,54.65
2022-12-08T07:13:59.890Z,55.67
2022-12-08T07:20:46.318Z,54.97
2022-12-08T07:38:15.964Z,56.51
2022-12-08T07:45:04.700Z,57.51
2022-12-08T07:48:54.383Z,57.03
2022-12-08T07:52:07.095Z,55.53
2022-12-08T07:55:11.605Z,55.61
2022-12-08T07:58:28.389Z,55.81
2022-12-08T08:05:45.163Z,55.51
2022-12-08T08:08:27.135Z,54.59
2022-12-08T08:11:31.548Z,54.51
2022-12-08T08:14:35.807Z,53.64
2022-12-08T08:17:45.509Z,54.98
2022-12-08T08:20:54.268Z,54.36
2022-12-08T08:24:01.792Z,54.48
2022-12-08T08:27:08.248Z,54.72
2022-12-08T08:30:20.720Z,55.18
2022-12-08T08:35:00.830Z,54.44
2022-12-08T08:36:53.971Z,55.39
2022-12-08T08:39:59.257Z,54.75
2022-12-08T08:43:07.480Z,54.83
2022-12-08T08:46:18.915Z,53.19
2022-12-08T08:49:32.006Z,52.95
2022-12-08T08:52:44.487Z,54.72
2022-12-08T08:55:53.198Z,54.81
2022-12-08T08:59:00.282Z,55.15
2022-12-08T09:02:08.899Z,56.47
2022-12-08T09:05:16.439Z,55.58
2022-12-08T09:08:24.914Z,55.03
2022-12-08T09:12:19.663Z,54.81
2022-12-08T09:16:38.940Z,54.90
2022-12-08T09:18:28.050Z,55.38
2022-12-08T09:21:33.579Z,55.42
2022-12-08T09:24:39.353Z,54.86
2022-12-08T09:27:47.249Z,54.89
2022-12-08T09:30:54.153Z,54.11
2022-12-08T09:34:01.070Z,54.40
2022-12-08T09:37:05.187Z,54.36
2022-12-08T09:40:59.189Z,54.49
2022-12-08T09:43:40.307Z,54.61
2022-12-08T09:46:45.950Z,54.32
2022-12-08T09:49:56.716Z,54.79
2022-12-08T09:53:02.268Z,53.64
2022-12-08T09:56:12.374Z,54.60
2022-12-08T09:59:19.075Z,54.07
2022-12-08T10:02:28.896Z,55.35
2022-12-08T10:06:20.190Z,54.02
2022-12-08T10:08:59.295Z,53.54
2022-12-08T10:12:06.400Z,54.49
2022-12-08T10:15:10.655Z,53.54
2022-12-08T10:18:15.908Z,54.69
2022-12-08T10:21:21.138Z,56.30
2022-12-08T10:24:25.137Z,55.72
2022-12-08T10:27:30.521Z,54.41
2022-12-08T10:30:34.687Z,54.09
2022-12-08T10:33:40.273Z,53.86
2022-12-08T10:36:45.696Z,53.80
2022-12-08T10:39:54.151Z,54.08
2022-12-08T10:43:10.211Z,53.89
2022-12-08T10:47:01.552Z,53.45
2022-12-08T10:49:41.496Z,54.08
2022-12-08T10:52:45.803Z,54.25
2022-12-08T10:55:51.326Z,55.16
2022-12-08T10:58:58.696Z,54.97
2022-12-08T11:02:10.165Z,54.75
2022-12-08T11:05:14.208Z,55.06
2022-12-08T11:08:22.572Z,55.57
2022-12-08T11:11:29.500Z,54.68
2022-12-08T11:18:02.889Z,54.56
2022-12-08T11:21:07.038Z,53.60
2022-12-08T11:24:13.516Z,52.99
2022-12-08T11:27:28.242Z,54.41
2022-12-08T11:30:32.172Z,54.02
2022-12-08T11:33:36.617Z,54.01
2022-12-08T11:36:40.656Z,53.81
2022-12-08T11:39:44.728Z,55.68
2022-12-08T11:42:49.841Z,53.57
2022-12-08T11:45:54.037Z,52.69
2022-12-08T11:49:01.272Z,52.01
2022-12-08T11:52:10.868Z,52.36
2022-12-08T11:55:14.976Z,53.15
2022-12-08T11:58:19.951Z,53.28
2022-12-08T12:01:33.989Z,53.81
2022-12-08T12:04:41.679Z,53.55
2022-12-08T12:07:46.901Z,55.78
2022-12-08T12:10:51.126Z,53.53
2022-12-08T12:14:03.142Z,55.48
2022-12-08T12:20:35.595Z,53.71
2022-12-08T12:23:46.311Z,53.58
2022-12-08T12:26:54.909Z,52.47
2022-12-08T12:29:58.902Z,51.97
2022-12-08T12:33:02.911Z,53.30
2022-12-08T12:36:06.732Z,54.01
2022-12-08T12:39:30.190Z,53.00
2022-12-08T12:43:32.112Z,54.35
2022-12-08T12:53:27.349Z,51.45
2022-12-08T13:00:45.872Z,53.35
2022-12-08T13:04:09.577Z,53.68
2022-12-08T13:07:25.585Z,53.63
2022-12-08T13:10:39.571Z,55.31
2022-12-08T13:14:37.389Z,53.79
2022-12-08T13:17:56.764Z,52.64
2022-12-08T13:21:08.650Z,53.57
2022-12-08T13:28:33.477Z,53.15
2022-12-08T13:31:16.387Z,52.44
2022-12-08T13:39:28.016Z,52.84
2022-12-08T13:41:35.545Z,54.14
2022-12-08T13:45:20.170Z,50.48
2022-12-08T13:53:49.043Z,51.80
2022-12-08T14:02:23.457Z,54.56
2022-12-08T14:16:26.597Z,53.00
2022-12-08T14:23:02.640Z,52.33
2022-12-08T14:26:12.460Z,54.06
2022-12-08T14:29:19.047Z,52.80
2022-12-08T14:32:28.659Z,52.61
2022-12-08T14:35:35.607Z,52.46
2022-12-08T14:42:12.696Z,51.35
2022-12-08T14:49:00.548Z,55.08
2022-12-08T14:52:31.521Z,54.36
2022-12-08T14:56:00.690Z,55.21
2022-12-08T15:02:41.798Z,54.28
2022-12-08T15:06:05.763Z,53.61
2022-12-08T15:09:14.091Z,54.24
2022-12-08T15:12:26.409Z,54.50
2022-12-08T15:18:52.490Z,53.87
2022-12-08T15:22:16.105Z,53.35
2022-12-08T15:28:39.851Z,54.94
2022-12-08T15:31:47.385Z,54.90
2022-12-08T15:34:53.988Z,56.37
2022-12-08T15:37:59.935Z,57.07
2022-12-08T15:44:25.780Z,58.33
2022-12-08T15:47:33.857Z,58.52
2022-12-08T15:51:11.968Z,57.28
2022-12-08T15:54:14.477Z,58.24
2022-12-08T16:00:52.272Z,57.20
2022-12-08T16:04:27.877Z,55.78
2022-12-08T16:07:22.085Z,56.21
2022-12-08T16:10:29.880Z,55.56
2022-12-08T16:14:16.667Z,55.75
2022-12-08T16:17:08.760Z,56.23
2022-12-08T16:20:12.909Z,55.16
2022-12-08T16:23:34.588Z,55.83
2022-12-08T16:30:21.487Z,54.74
2022-12-08T16:47:29.572Z,55.81
2022-12-08T16:50:47.830Z,56.90
2022-12-08T16:54:16.005Z,54.53
2022-12-08T16:57:20.595Z,53.70
2022-12-08T17:00:33.914Z,54.12
2022-12-08T17:03:41.181Z,54.55
2022-12-08T17:06:44.993Z,54.66
2022-12-08T17:09:48.819Z,55.04
2022-12-08T17:13:02.076Z,54.73
2022-12-08T17:16:07.613Z,54.93
2022-12-08T17:19:18.797Z,55.09
2022-12-08T17:22:32.639Z,54.83
2022-12-08T17:25:40.268Z,55.05
2022-12-08T17:29:02.282Z,54.17
2022-12-08T17:32:09.877Z,54.94
2022-12-08T17:35:18.883Z,53.77
2022-12-08T17:38:25.164Z,54.54
2022-12-08T17:41:29.549Z,54.83
2022-12-08T17:44:36.244Z,54.78
2022-12-08T17:47:41.494Z,54.32
2022-12-08T17:50:45.476Z,54.26
2022-12-08T17:53:48.987Z,54.87
2022-12-08T17:56:53.204Z,54.52
2022-12-08T17:59:59.768Z,54.13
2022-12-08T18:03:13.201Z,53.24
2022-12-08T18:09:58.348Z,53.55
2022-12-08T18:12:47.322Z,53.44
2022-12-08T18:15:51.262Z,52.98
2022-12-08T18:18:55.461Z,52.12
2022-12-08T18:21:59.484Z,51.71
2022-12-08T18:25:03.151Z,52.21
2022-12-08T18:28:07.801Z,53.22
2022-12-08T18:31:16.764Z,51.69
2022-12-08T18:34:32.712Z,51.59
2022-12-08T18:37:44.274Z,51.73
2022-12-08T18:40:54.347Z,50.91
2022-12-08T18:44:05.922Z,50.95
2022-12-08T18:47:15.334Z,51.10
2022-12-08T18:50:24.688Z,51.19
2022-12-08T18:53:29.005Z,51.43
2022-12-08T18:56:34.131Z,52.07
2022-12-08T18:59:38.411Z,52.38
2022-12-08T19:02:54.181Z,53.09
2022-12-08T19:05:58.185Z,54.18
2022-12-08T19:12:36.675Z,53.71
2022-12-08T19:19:22.984Z,53.52
2022-12-08T20:07:54.427Z,55.84
2022-12-08T20:10:59.428Z,55.55
2022-12-08T20:14:03.441Z,55.36
2022-12-08T20:17:07.388Z,55.50
2022-12-08T20:20:33.757Z,57.25
2022-12-08T20:23:47.267Z,57.99
2022-12-08T20:26:55.019Z,57.40
2022-12-08T20:29:59.017Z,56.96
2022-12-08T20:33:03.489Z,57.00
2022-12-08T20:36:07.243Z,57.42
2022-12-08T20:39:11.637Z,56.26
2022-12-08T20:42:15.387Z,56.78
2022-12-08T20:45:19.565Z,57.58
2022-12-08T20:48:23.533Z,58.43
2022-12-08T20:51:32.016Z,57.25
2022-12-08T20:54:36.048Z,57.55
2022-12-08T20:57:39.831Z,56.56
2022-12-08T21:00:44.149Z,55.91
2022-12-08T21:03:48.742Z,56.62
2022-12-08T21:06:52.785Z,56.03
2022-12-08T21:09:57.014Z,55.97
2022-12-08T21:13:00.900Z,56.97
2022-12-08T21:16:05.129Z,57.36
2022-12-08T21:19:09.325Z,57.07
2022-12-08T21:22:13.366Z,57.01
2022-12-08T21:25:17.716Z,56.85
2022-12-08T21:28:21.527Z,57.72
2022-12-08T21:31:25.773Z,58.32
2022-12-08T21:34:29.933Z,57.58
2022-12-08T21:37:33.742Z,57.94
2022-12-08T21:40:37.777Z,58.85
2022-12-08T21:43:42.114Z,58.58
2022-12-08T21:46:46.414Z,58.13
2022-12-08T21:49:50.598Z,58.16
2022-12-08T21:52:54.394Z,59.14
2022-12-08T21:55:58.279Z,59.35
2022-12-08T21:59:02.811Z,60.58
2022-12-08T22:02:07.381Z,60.00
2022-12-08T22:05:11.225Z,60.49
2022-12-08T22:08:15.363Z,59.89
2022-12-08T22:11:19.965Z,59.88
2022-12-08T22:14:24.069Z,61.55
2022-12-08T22:17:28.005Z,61.88
2022-12-08T22:20:32.114Z,63.69
2022-12-08T22:23:36.483Z,62.57
2022-12-08T22:26:40.541Z,61.86
2022-12-08T22:29:44.861Z,64.35
2022-12-08T22:32:48.841Z,66.18
2022-12-08T22:35:52.824Z,63.63
2022-12-08T22:38:58.704Z,66.58
2022-12-08T22:42:02.592Z,66.41
2022-12-08T22:45:06.893Z,66.10
2022-12-08T22:48:10.960Z,66.36
2022-12-08T22:51:14.731Z,68.67
2022-12-08T22:54:19.110Z,67.99
2022-12-08T22:57:23.311Z,68.38
2022-12-08T23:00:27.580Z,70.94
2022-12-08T23:03:32.867Z,73.24
2022-12-08T23:06:36.456Z,71.58
2022-12-08T23:09:41.577Z,71.31
2022-12-08T23:12:45.877Z,73.10
2022-12-08T23:15:50.044Z,74.74
2022-12-08T23:18:54.180Z,72.80
2022-12-08T23:21:58.292Z,74.00
2022-12-08T23:25:02.475Z,72.80
2022-12-08T23:28:06.286Z,70.40
2022-12-08T23:31:10.462Z,71.95
2022-12-08T23:34:14.502Z,71.87
2022-12-08T23:37:18.593Z,72.73
2022-12-08T23:40:22.905Z,72.85
2022-12-08T23:43:27.175Z,75.52
2022-12-08T23:46:33.701Z,72.96
2022-12-08T23:49:37.947Z,72.50
2022-12-08T23:52:41.694Z,74.14
2022-12-08T23:55:45.702Z,73.08
2022-12-08T23:58:49.667Z,71.31
